sensor_id;sensor_type;location;lat;lon;timestamp;pressure;altitude;pressure_sealevel;temperature;humidity
27958;BME280;15295;42.658;23.374;2023-04-15T00:00:20;93793.88;;;12.93;43.13
27958;BME280;15295;42.658;23.374;2023-04-15T00:02:46;93824.47;;;12.91;43.78
27958;BME280;15295;42.658;23.374;2023-04-15T00:05:12;93801.06;;;12.71;43.80
27958;BME280;15295;42.658;23.374;2023-04-15T00:07:38;93820.00;;;12.65;44.10
27958;BME280;15295;42.658;23.374;2023-04-15T00:10:05;93829.25;;;12.87;44.59
27958;BME280;15295;42.658;23.374;2023-04-15T00:12:31;93838.59;;;12.90;44.71
27958;BME280;15295;42.658;23.374;2023-04-15T00:14:56;93839.47;;;12.87;45.53
27958;BME280;15295;42.658;23.374;2023-04-15T00:17:23;93843.75;;;12.72;47.15
27958;BME280;15295;42.658;23.374;2023-04-15T00:19:50;93861.41;;;12.87;47.72
27958;BME280;15295;42.658;23.374;2023-04-15T00:22:16;93822.66;;;12.69;48.11
27958;BME280;15295;42.658;23.374;2023-04-15T00:24:51;93836.38;;;12.85;48.26
27958;BME280;15295;42.658;23.374;2023-04-15T00:27:16;93847.41;;;12.97;48.10
27958;BME280;15295;42.658;23.374;2023-04-15T00:29:42;93860.13;;;13.07;47.88
27958;BME280;15295;42.658;23.374;2023-04-15T00:32:07;93843.72;;;13.04;47.81
27958;BME280;15295;42.658;23.374;2023-04-15T00:34:33;93827.78;;;12.99;47.58
27958;BME280;15295;42.658;23.374;2023-04-15T00:36:59;93826.34;;;13.10;47.58
27958;BME280;15295;42.658;23.374;2023-04-15T00:39:25;93840.31;;;13.16;47.53
27958;BME280;15295;42.658;23.374;2023-04-15T00:41:51;93845.97;;;13.25;48.03
27958;BME280;15295;42.658;23.374;2023-04-15T00:44:17;93833.88;;;13.23;47.99
27958;BME280;15295;42.658;23.374;2023-04-15T00:46:47;93857.09;;;13.34;47.89
27958;BME280;15295;42.658;23.374;2023-04-15T00:49:17;93860.19;;;13.36;47.75
27958;BME280;15295;42.658;23.374;2023-04-15T00:51:43;93864.72;;;13.43;47.93
27958;BME280;15295;42.658;23.374;2023-04-15T00:54:09;93865.47;;;13.43;47.93
27958;BME280;15295;42.658;23.374;2023-04-15T00:56:39;93854.41;;;13.47;47.46
27958;BME280;15295;42.658;23.374;2023-04-15T00:59:07;93850.88;;;13.46;47.86
27958;BME280;15295;42.658;23.374;2023-04-15T01:01:34;93850.44;;;13.48;46.86
27958;BME280;15295;42.658;23.374;2023-04-15T01:04:01;93872.31;;;13.51;47.10
27958;BME280;15295;42.658;23.374;2023-04-15T01:06:26;93863.53;;;13.56;47.61
27958;BME280;15295;42.658;23.374;2023-04-15T01:08:53;93871.91;;;13.37;47.46
27958;BME280;15295;42.658;23.374;2023-04-15T01:11:20;93857.09;;;13.34;46.71
27958;BME280;15295;42.658;23.374;2023-04-15T01:13:46;93861.88;;;13.30;46.76
27958;BME280;15295;42.658;23.374;2023-04-15T01:16:13;93861.75;;;13.21;46.66
27958;BME280;15295;42.658;23.374;2023-04-15T01:18:48;93856.66;;;13.20;47.19
27958;BME280;15295;42.658;23.374;2023-04-15T01:21:19;93848.25;;;13.27;46.96
27958;BME280;15295;42.658;23.374;2023-04-15T01:23:46;93852.03;;;13.00;46.43
27958;BME280;15295;42.658;23.374;2023-04-15T01:26:12;93846.84;;;13.06;45.96
27958;BME280;15295;42.658;23.374;2023-04-15T01:28:49;93842.78;;;12.94;45.97
27958;BME280;15295;42.658;23.374;2023-04-15T01:31:15;93837.06;;;12.89;45.92
27958;BME280;15295;42.658;23.374;2023-04-15T01:33:41;93835.00;;;12.77;46.11
27958;BME280;15295;42.658;23.374;2023-04-15T01:36:08;93843.66;;;12.75;46.09
27958;BME280;15295;42.658;23.374;2023-04-15T01:38:37;93836.97;;;12.60;46.01
27958;BME280;15295;42.658;23.374;2023-04-15T01:41:03;93843.75;;;12.72;45.81
27958;BME280;15295;42.658;23.374;2023-04-15T01:43:35;93839.00;;;12.40;46.20
27958;BME280;15295;42.658;23.374;2023-04-15T01:46:02;93849.44;;;12.45;46.09
27958;BME280;15295;42.658;23.374;2023-04-15T01:48:27;93851.75;;;12.30;46.32
27958;BME280;15295;42.658;23.374;2023-04-15T01:50:54;93855.84;;;12.38;46.51
27958;BME280;15295;42.658;23.374;2023-04-15T01:53:21;93856.38;;;12.33;46.00
27958;BME280;15295;42.658;23.374;2023-04-15T01:55:47;93861.88;;;12.33;46.22
27958;BME280;15295;42.658;23.374;2023-04-15T01:58:12;93853.16;;;11.83;47.08
27958;BME280;15295;42.658;23.374;2023-04-15T02:00:38;93856.44;;;11.94;47.02
27958;BME280;15295;42.658;23.374;2023-04-15T02:03:03;93874.97;;;12.06;47.14
27958;BME280;15295;42.658;23.374;2023-04-15T02:05:34;93860.63;;;12.18;47.06
27958;BME280;15295;42.658;23.374;2023-04-15T02:08:00;93869.75;;;12.31;47.22
27958;BME280;15295;42.658;23.374;2023-04-15T02:10:25;93863.38;;;12.34;47.86
27958;BME280;15295;42.658;23.374;2023-04-15T02:12:51;93862.47;;;12.41;48.06
27958;BME280;15295;42.658;23.374;2023-04-15T02:15:19;93861.38;;;12.55;47.39
27958;BME280;15295;42.658;23.374;2023-04-15T02:17:44;93847.34;;;12.53;47.28
27958;BME280;15295;42.658;23.374;2023-04-15T02:20:15;93852.22;;;12.61;47.15
27958;BME280;15295;42.658;23.374;2023-04-15T02:22:41;93826.16;;;12.53;46.93
27958;BME280;15295;42.658;23.374;2023-04-15T02:25:07;93851.97;;;12.72;46.97
27958;BME280;15295;42.658;23.374;2023-04-15T02:27:32;93849.56;;;12.74;46.73
27958;BME280;15295;42.658;23.374;2023-04-15T02:30:00;93856.84;;;12.80;46.71
27958;BME280;15295;42.658;23.374;2023-04-15T02:32:25;93855.13;;;12.38;47.68
27958;BME280;15295;42.658;23.374;2023-04-15T02:34:51;93831.22;;;12.55;47.43
27958;BME280;15295;42.658;23.374;2023-04-15T02:37:17;93832.09;;;12.68;47.32
27958;BME280;15295;42.658;23.374;2023-04-15T02:39:46;93815.03;;;12.60;47.35
27958;BME280;15295;42.658;23.374;2023-04-15T02:42:12;93840.31;;;12.68;47.81
27958;BME280;15295;42.658;23.374;2023-04-15T02:44:38;93849.72;;;12.67;48.13
27958;BME280;15295;42.658;23.374;2023-04-15T02:47:03;93844.41;;;12.60;48.17
27958;BME280;15295;42.658;23.374;2023-04-15T02:49:31;93856.34;;;12.69;48.47
27958;BME280;15295;42.658;23.374;2023-04-15T02:51:58;93841.50;;;12.67;48.59
27958;BME280;15295;42.658;23.374;2023-04-15T02:54:25;93839.44;;;12.71;48.73
27958;BME280;15295;42.658;23.374;2023-04-15T02:56:53;93850.75;;;12.73;48.77
27958;BME280;15295;42.658;23.374;2023-04-15T02:59:21;93875.59;;;12.82;48.94
27958;BME280;15295;42.658;23.374;2023-04-15T03:01:46;93857.59;;;12.49;48.30
27958;BME280;15295;42.658;23.374;2023-04-15T03:04:12;93859.13;;;12.50;48.36
27958;BME280;15295;42.658;23.374;2023-04-15T03:06:38;93884.78;;;12.59;48.20
27958;BME280;15295;42.658;23.374;2023-04-15T03:09:04;93853.66;;;12.33;47.89
27958;BME280;15295;42.658;23.374;2023-04-15T03:11:29;93856.53;;;12.26;48.30
27958;BME280;15295;42.658;23.374;2023-04-15T03:13:55;93851.38;;;12.12;48.07
27958;BME280;15295;42.658;23.374;2023-04-15T03:16:21;93861.47;;;12.15;47.85
27958;BME280;15295;42.658;23.374;2023-04-15T03:18:47;93879.47;;;12.16;47.79
27958;BME280;15295;42.658;23.374;2023-04-15T03:21:14;93875.72;;;12.07;48.13
27958;BME280;15295;42.658;23.374;2023-04-15T03:23:40;93878.22;;;12.01;48.08
27958;BME280;15295;42.658;23.374;2023-04-15T03:26:05;93892.38;;;11.96;48.37
27958;BME280;15295;42.658;23.374;2023-04-15T03:28:31;93890.28;;;11.84;48.22
27958;BME280;15295;42.658;23.374;2023-04-15T03:31:00;93902.06;;;11.81;48.44
27958;BME280;15295;42.658;23.374;2023-04-15T03:33:25;93863.97;;;11.71;48.68
27958;BME280;15295;42.658;23.374;2023-04-15T03:35:51;93902.97;;;11.75;48.97
27958;BME280;15295;42.658;23.374;2023-04-15T03:38:17;93887.16;;;11.62;49.31
27958;BME280;15295;42.658;23.374;2023-04-15T03:40:49;93896.88;;;11.67;49.61
27958;BME280;15295;42.658;23.374;2023-04-15T03:43:19;93903.22;;;11.60;49.63
27958;BME280;15295;42.658;23.374;2023-04-15T03:45:45;93910.19;;;11.65;49.64
27958;BME280;15295;42.658;23.374;2023-04-15T03:48:10;93896.75;;;11.51;50.03
27958;BME280;15295;42.658;23.374;2023-04-15T03:50:39;93895.56;;;11.52;50.07
27958;BME280;15295;42.658;23.374;2023-04-15T03:53:05;93930.78;;;11.73;49.90
27958;BME280;15295;42.658;23.374;2023-04-15T03:55:30;93919.94;;;11.66;50.08
27958;BME280;15295;42.658;23.374;2023-04-15T03:57:55;93923.03;;;11.68;49.87
27958;BME280;15295;42.658;23.374;2023-04-15T04:00:22;93918.53;;;11.58;50.19
27958;BME280;15295;42.658;23.374;2023-04-15T04:02:47;93915.44;;;11.56;50.37
27958;BME280;15295;42.658;23.374;2023-04-15T04:05:13;93897.53;;;11.51;50.40
27958;BME280;15295;42.658;23.374;2023-04-15T04:07:38;93922.25;;;11.68;50.46
27958;BME280;15295;42.658;23.374;2023-04-15T04:10:08;93937.38;;;11.76;50.42
27958;BME280;15295;42.658;23.374;2023-04-15T04:12:33;93919.94;;;11.66;50.47
27958;BME280;15295;42.658;23.374;2023-04-15T04:14:59;93926.44;;;11.76;50.75
27958;BME280;15295;42.658;23.374;2023-04-15T04:17:24;93914.78;;;11.72;50.83
27958;BME280;15295;42.658;23.374;2023-04-15T04:19:50;93919.34;;;11.78;51.17
27958;BME280;15295;42.658;23.374;2023-04-15T04:22:15;93933.81;;;11.98;50.98
27958;BME280;15295;42.658;23.374;2023-04-15T04:24:41;93914.78;;;11.91;51.05
27958;BME280;15295;42.658;23.374;2023-04-15T04:27:06;93943.63;;;11.96;51.09
27958;BME280;15295;42.658;23.374;2023-04-15T04:29:31;93938.09;;;11.99;50.95
27958;BME280;15295;42.658;23.374;2023-04-15T04:31:58;93917.47;;;11.95;51.15
27958;BME280;15295;42.658;23.374;2023-04-15T04:34:23;93926.50;;;12.11;50.98
27958;BME280;15295;42.658;23.374;2023-04-15T04:36:48;93921.63;;;12.19;50.71
27958;BME280;15295;42.658;23.374;2023-04-15T04:39:14;93919.69;;;12.19;50.51
27958;BME280;15295;42.658;23.374;2023-04-15T04:41:40;93931.53;;;12.32;50.30
27958;BME280;15295;42.658;23.374;2023-04-15T04:44:11;93941.34;;;12.50;50.13
27958;BME280;15295;42.658;23.374;2023-04-15T04:46:37;93956.78;;;12.60;50.16
27958;BME280;15295;42.658;23.374;2023-04-15T04:49:02;93926.81;;;12.53;50.19
27958;BME280;15295;42.658;23.374;2023-04-15T04:51:31;93933.53;;;12.68;49.81
27958;BME280;15295;42.658;23.374;2023-04-15T04:53:57;93942.97;;;12.83;49.74
27958;BME280;15295;42.658;23.374;2023-04-15T04:56:23;93956.25;;;13.00;49.50
27958;BME280;15295;42.658;23.374;2023-04-15T04:58:48;93962.56;;;13.17;49.39
27958;BME280;15295;42.658;23.374;2023-04-15T05:01:14;93961.63;;;13.24;49.13
27958;BME280;15295;42.658;23.374;2023-04-15T05:03:39;93977.66;;;13.41;49.19
27958;BME280;15295;42.658;23.374;2023-04-15T05:06:10;93956.38;;;13.45;48.86
27958;BME280;15295;42.658;23.374;2023-04-15T05:08:35;93960.16;;;13.51;48.62
27958;BME280;15295;42.658;23.374;2023-04-15T05:11:01;93988.59;;;13.73;48.39
27958;BME280;15295;42.658;23.374;2023-04-15T05:13:27;93953.28;;;13.43;47.51
27958;BME280;15295;42.658;23.374;2023-04-15T05:15:57;93980.63;;;13.63;48.00
27958;BME280;15295;42.658;23.374;2023-04-15T05:18:23;94004.97;;;13.93;47.49
27958;BME280;15295;42.658;23.374;2023-04-15T05:20:49;94005.81;;;14.06;47.09
27958;BME280;15295;42.658;23.374;2023-04-15T05:23:16;93981.03;;;13.93;46.57
27958;BME280;15295;42.658;23.374;2023-04-15T05:25:41;93999.84;;;14.24;46.42
27958;BME280;15295;42.658;23.374;2023-04-15T05:28:07;93976.75;;;14.21;45.31
27958;BME280;15295;42.658;23.374;2023-04-15T05:30:34;93985.28;;;14.39;44.31
27958;BME280;15295;42.658;23.374;2023-04-15T05:33:05;93992.47;;;14.49;44.14
27958;BME280;15295;42.658;23.374;2023-04-15T05:35:30;94002.94;;;14.67;43.55
27958;BME280;15295;42.658;23.374;2023-04-15T05:37:56;94004.19;;;14.79;42.54
27958;BME280;15295;42.658;23.374;2023-04-15T05:40:21;93974.47;;;14.74;42.27
27958;BME280;15295;42.658;23.374;2023-04-15T05:42:47;93984.09;;;14.94;42.29
27958;BME280;15295;42.658;23.374;2023-04-15T05:45:13;93987.50;;;15.11;41.81
27958;BME280;15295;42.658;23.374;2023-04-15T05:47:38;94001.47;;;15.16;41.94
27958;BME280;15295;42.658;23.374;2023-04-15T05:50:04;93996.84;;;15.26;41.04
27958;BME280;15295;42.658;23.374;2023-04-15T05:52:31;93993.75;;;15.36;41.75
27958;BME280;15295;42.658;23.374;2023-04-15T05:54:56;93985.06;;;15.51;41.34
27958;BME280;15295;42.658;23.374;2023-04-15T05:57:22;94004.09;;;15.70;40.76
27958;BME280;15295;42.658;23.374;2023-04-15T05:59:50;94003.09;;;15.77;39.54
27958;BME280;15295;42.658;23.374;2023-04-15T06:02:22;94012.44;;;15.92;40.26
27958;BME280;15295;42.658;23.374;2023-04-15T06:04:47;94019.00;;;16.07;40.32
27958;BME280;15295;42.658;23.374;2023-04-15T06:07:12;94004.69;;;16.12;39.28
27958;BME280;15295;42.658;23.374;2023-04-15T06:09:38;94016.94;;;16.33;38.26
27958;BME280;15295;42.658;23.374;2023-04-15T06:12:15;94018.88;;;16.45;37.80
27958;BME280;15295;42.658;23.374;2023-04-15T06:14:41;94006.47;;;16.62;37.31
27958;BME280;15295;42.658;23.374;2023-04-15T06:17:07;94022.13;;;16.86;37.13
27958;BME280;15295;42.658;23.374;2023-04-15T06:19:33;94017.16;;;16.81;36.62
27958;BME280;15295;42.658;23.374;2023-04-15T06:21:59;94012.88;;;16.80;36.72
27958;BME280;15295;42.658;23.374;2023-04-15T06:24:24;94021.53;;;16.91;37.14
27958;BME280;15295;42.658;23.374;2023-04-15T06:26:50;94025.66;;;17.18;36.88
27958;BME280;15295;42.658;23.374;2023-04-15T06:29:15;94028.31;;;17.30;36.60
27958;BME280;15295;42.658;23.374;2023-04-15T06:31:41;94035.13;;;17.38;36.29
27958;BME280;15295;42.658;23.374;2023-04-15T06:34:08;94049.34;;;17.58;36.14
27958;BME280;15295;42.658;23.374;2023-04-15T06:36:34;94043.13;;;17.76;36.04
27958;BME280;15295;42.658;23.374;2023-04-15T06:38:59;94045.44;;;17.78;36.03
27958;BME280;15295;42.658;23.374;2023-04-15T06:41:25;94054.53;;;17.87;36.15
27958;BME280;15295;42.658;23.374;2023-04-15T06:43:51;94040.72;;;17.87;36.14
27958;BME280;15295;42.658;23.374;2023-04-15T06:46:17;94041.66;;;17.93;35.92
27958;BME280;15295;42.658;23.374;2023-04-15T06:48:42;94056.91;;;18.16;35.73
27958;BME280;15295;42.658;23.374;2023-04-15T06:51:08;94058.31;;;18.29;35.79
27958;BME280;15295;42.658;23.374;2023-04-15T06:53:49;94065.44;;;18.67;34.93
27958;BME280;15295;42.658;23.374;2023-04-15T06:56:14;94047.47;;;18.62;34.49
27958;BME280;15295;42.658;23.374;2023-04-15T06:58:40;94048.97;;;18.54;34.14
27958;BME280;15295;42.658;23.374;2023-04-15T07:01:05;94063.28;;;18.80;34.40
27958;BME280;15295;42.658;23.374;2023-04-15T07:03:30;94057.56;;;19.01;33.99
27958;BME280;15295;42.658;23.374;2023-04-15T07:05:56;94070.63;;;19.28;33.90
27958;BME280;15295;42.658;23.374;2023-04-15T07:08:23;94067.78;;;19.55;33.55
27958;BME280;15295;42.658;23.374;2023-04-15T07:10:48;94058.06;;;19.60;32.59
27958;BME280;15295;42.658;23.374;2023-04-15T07:13:24;94077.19;;;19.58;32.99
27958;BME280;15295;42.658;23.374;2023-04-15T07:15:49;94061.91;;;19.71;32.65
27958;BME280;15295;42.658;23.374;2023-04-15T07:18:16;94062.59;;;19.81;32.20
27958;BME280;15295;42.658;23.374;2023-04-15T07:20:42;94063.38;;;19.81;32.13
27958;BME280;15295;42.658;23.374;2023-04-15T07:23:07;94053.97;;;19.88;32.61
27958;BME280;15295;42.658;23.374;2023-04-15T07:25:33;94057.41;;;20.07;32.54
27958;BME280;15295;42.658;23.374;2023-04-15T07:27:59;94063.47;;;20.29;31.96
27958;BME280;15295;42.658;23.374;2023-04-15T07:30:25;94062.41;;;20.26;31.91
27958;BME280;15295;42.658;23.374;2023-04-15T07:32:50;94072.25;;;19.94;31.76
27958;BME280;15295;42.658;23.374;2023-04-15T07:35:15;94069.97;;;20.17;31.90
27958;BME280;15295;42.658;23.374;2023-04-15T07:37:45;94064.50;;;20.08;31.36
27958;BME280;15295;42.658;23.374;2023-04-15T07:40:11;94062.66;;;20.05;31.95
27958;BME280;15295;42.658;23.374;2023-04-15T07:42:38;94069.16;;;20.02;32.15
27958;BME280;15295;42.658;23.374;2023-04-15T07:45:05;94065.69;;;20.16;32.38
27958;BME280;15295;42.658;23.374;2023-04-15T07:47:31;94063.44;;;20.38;32.02
27958;BME280;15295;42.658;23.374;2023-04-15T07:49:56;94067.31;;;20.55;31.30
27958;BME280;15295;42.658;23.374;2023-04-15T07:52:21;94075.41;;;20.67;31.17
27958;BME280;15295;42.658;23.374;2023-04-15T07:54:47;94071.63;;;20.56;31.00
27958;BME280;15295;42.658;23.374;2023-04-15T07:57:12;94072.72;;;20.73;31.02
27958;BME280;15295;42.658;23.374;2023-04-15T07:59:38;94077.09;;;20.89;30.51
27958;BME280;15295;42.658;23.374;2023-04-15T08:02:03;94090.25;;;21.03;30.06
27958;BME280;15295;42.658;23.374;2023-04-15T08:04:34;94088.88;;;20.98;30.08
27958;BME280;15295;42.658;23.374;2023-04-15T08:07:00;94070.47;;;20.86;30.03
27958;BME280;15295;42.658;23.374;2023-04-15T08:09:25;94069.97;;;20.88;29.83
27958;BME280;15295;42.658;23.374;2023-04-15T08:11:51;94084.44;;;20.92;30.29
27958;BME280;15295;42.658;23.374;2023-04-15T08:14:25;94082.63;;;21.12;30.28
27958;BME280;15295;42.658;23.374;2023-04-15T08:16:51;94082.06;;;21.52;29.71
27958;BME280;15295;42.658;23.374;2023-04-15T08:19:16;94081.63;;;21.83;29.45
27958;BME280;15295;42.658;23.374;2023-04-15T08:21:41;94083.09;;;22.13;29.34
27958;BME280;15295;42.658;23.374;2023-04-15T08:24:07;94085.00;;;22.42;28.54
27958;BME280;15295;42.658;23.374;2023-04-15T08:26:35;94082.06;;;22.65;28.27
27958;BME280;15295;42.658;23.374;2023-04-15T08:29:04;94070.81;;;22.74;27.52
27958;BME280;15295;42.658;23.374;2023-04-15T08:31:29;94070.50;;;22.92;27.23
27958;BME280;15295;42.658;23.374;2023-04-15T08:33:56;94089.31;;;23.18;26.87
27958;BME280;15295;42.658;23.374;2023-04-15T08:36:21;94074.50;;;23.32;26.82
27958;BME280;15295;42.658;23.374;2023-04-15T08:38:47;94061.75;;;23.45;26.04
27958;BME280;15295;42.658;23.374;2023-04-15T08:41:23;94069.44;;;23.56;26.45
27958;BME280;15295;42.658;23.374;2023-04-15T08:44:03;94077.44;;;23.74;26.01
27958;BME280;15295;42.658;23.374;2023-04-15T08:46:30;94077.84;;;23.61;25.29
27958;BME280;15295;42.658;23.374;2023-04-15T08:48:57;94077.53;;;23.80;25.81
27958;BME280;15295;42.658;23.374;2023-04-15T08:51:23;94071.84;;;24.00;24.48
27958;BME280;15295;42.658;23.374;2023-04-15T08:53:49;94060.66;;;24.00;24.40
27958;BME280;15295;42.658;23.374;2023-04-15T08:56:24;94063.69;;;23.96;24.81
27958;BME280;15295;42.658;23.374;2023-04-15T08:58:51;94057.03;;;23.88;24.29
27958;BME280;15295;42.658;23.374;2023-04-15T09:01:17;94063.25;;;24.03;24.80
27958;BME280;15295;42.658;23.374;2023-04-15T09:03:43;94060.59;;;23.89;23.98
27958;BME280;15295;42.658;23.374;2023-04-15T09:06:10;94060.13;;;23.96;24.31
27958;BME280;15295;42.658;23.374;2023-04-15T09:08:36;94047.22;;;23.98;23.42
27958;BME280;15295;42.658;23.374;2023-04-15T09:11:02;94060.09;;;24.21;22.99
27958;BME280;15295;42.658;23.374;2023-04-15T09:13:28;94050.66;;;24.56;22.51
27958;BME280;15295;42.658;23.374;2023-04-15T09:16:09;94040.06;;;24.71;22.14
27958;BME280;15295;42.658;23.374;2023-04-15T09:18:36;94037.91;;;24.97;22.10
27958;BME280;15295;42.658;23.374;2023-04-15T09:21:15;94034.84;;;25.00;21.68
27958;BME280;15295;42.658;23.374;2023-04-15T09:23:56;94028.63;;;24.69;21.36
27958;BME280;15295;42.658;23.374;2023-04-15T09:29:29;94036.94;;;24.58;21.44
27958;BME280;15295;42.658;23.374;2023-04-15T09:31:55;94048.72;;;24.30;20.58
27958;BME280;15295;42.658;23.374;2023-04-15T09:34:34;94045.88;;;24.19;21.43
27958;BME280;15295;42.658;23.374;2023-04-15T09:37:03;94030.72;;;24.00;21.19
27958;BME280;15295;42.658;23.374;2023-04-15T09:39:44;94041.91;;;24.00;21.27
27958;BME280;15295;42.658;23.374;2023-04-15T09:42:11;94030.91;;;23.91;21.25
27958;BME280;15295;42.658;23.374;2023-04-15T09:44:36;94033.25;;;23.98;21.33
27958;BME280;15295;42.658;23.374;2023-04-15T09:47:07;94024.97;;;23.78;21.16
27958;BME280;15295;42.658;23.374;2023-04-15T09:49:32;94032.59;;;23.77;21.87
27958;BME280;15295;42.658;23.374;2023-04-15T09:52:01;94052.22;;;23.57;21.61
27958;BME280;15295;42.658;23.374;2023-04-15T09:54:37;94040.91;;;23.41;21.69
27958;BME280;15295;42.658;23.374;2023-04-15T09:57:12;94053.69;;;23.53;21.90
27958;BME280;15295;42.658;23.374;2023-04-15T09:59:37;94039.44;;;22.99;22.25
27958;BME280;15295;42.658;23.374;2023-04-15T10:02:06;94039.53;;;23.31;22.30
27958;BME280;15295;42.658;23.374;2023-04-15T10:04:35;94032.53;;;23.41;22.37
27958;BME280;15295;42.658;23.374;2023-04-15T10:07:03;94040.09;;;23.15;22.15
27958;BME280;15295;42.658;23.374;2023-04-15T10:09:29;94017.25;;;23.11;22.14
27958;BME280;15295;42.658;23.374;2023-04-15T10:11:55;94016.09;;;23.23;22.47
27958;BME280;15295;42.658;23.374;2023-04-15T10:14:22;94026.16;;;23.35;22.45
27958;BME280;15295;42.658;23.374;2023-04-15T10:17:04;94022.09;;;23.36;22.59
27958;BME280;15295;42.658;23.374;2023-04-15T10:19:35;94000.38;;;23.20;22.22
27958;BME280;15295;42.658;23.374;2023-04-15T10:22:01;94017.06;;;23.40;22.29
27958;BME280;15295;42.658;23.374;2023-04-15T10:24:30;94017.28;;;23.67;22.18
27958;BME280;15295;42.658;23.374;2023-04-15T10:26:56;94006.22;;;23.78;20.86
27958;BME280;15295;42.658;23.374;2023-04-15T10:29:24;94003.28;;;23.93;20.81
27958;BME280;15295;42.658;23.374;2023-04-15T10:31:53;93999.19;;;24.25;20.81
27958;BME280;15295;42.658;23.374;2023-04-15T10:34:19;93991.28;;;23.82;20.55
27958;BME280;15295;42.658;23.374;2023-04-15T10:36:57;94007.63;;;24.00;20.64
27958;BME280;15295;42.658;23.374;2023-04-15T10:39:39;94005.69;;;24.06;20.99
27958;BME280;15295;42.658;23.374;2023-04-15T10:42:11;93994.44;;;24.31;21.56
27958;BME280;15295;42.658;23.374;2023-04-15T10:44:38;93991.19;;;24.49;21.07
27958;BME280;15295;42.658;23.374;2023-04-15T10:47:10;94001.53;;;24.86;20.39
27958;BME280;15295;42.658;23.374;2023-04-15T10:49:43;93992.69;;;25.04;20.06
27958;BME280;15295;42.658;23.374;2023-04-15T10:52:13;93984.06;;;25.24;20.16
27958;BME280;15295;42.658;23.374;2023-04-15T10:54:38;93992.50;;;25.35;20.14
27958;BME280;15295;42.658;23.374;2023-04-15T10:57:08;93991.50;;;25.49;20.44
27958;BME280;15295;42.658;23.374;2023-04-15T11:00:11;93996.09;;;25.69;20.29
27958;BME280;15295;42.658;23.374;2023-04-15T11:02:56;93990.75;;;25.76;19.42
27958;BME280;15295;42.658;23.374;2023-04-15T11:08:09;93983.34;;;26.07;19.65
27958;BME280;15295;42.658;23.374;2023-04-15T11:13:13;93993.81;;;25.89;19.97
27958;BME280;15295;42.658;23.374;2023-04-15T11:15:45;93979.56;;;25.65;19.97
27958;BME280;15295;42.658;23.374;2023-04-15T11:20:50;93982.31;;;25.32;20.61
27958;BME280;15295;42.658;23.374;2023-04-15T11:23:35;93982.00;;;25.02;20.85
27958;BME280;15295;42.658;23.374;2023-04-15T11:26:05;93988.88;;;25.07;20.44
27958;BME280;15295;42.658;23.374;2023-04-15T11:28:34;93988.63;;;25.05;20.51
27958;BME280;15295;42.658;23.374;2023-04-15T11:31:07;93979.19;;;24.97;20.37
27958;BME280;15295;42.658;23.374;2023-04-15T11:33:34;93989.91;;;25.15;20.70
27958;BME280;15295;42.658;23.374;2023-04-15T11:36:00;93982.81;;;25.25;19.82
27958;BME280;15295;42.658;23.374;2023-04-15T11:38:36;93973.66;;;25.30;19.90
27958;BME280;15295;42.658;23.374;2023-04-15T11:41:08;93978.03;;;25.42;19.73
27958;BME280;15295;42.658;23.374;2023-04-15T11:43:36;93980.81;;;25.64;19.36
27958;BME280;15295;42.658;23.374;2023-04-15T11:46:02;93978.03;;;25.86;19.54
27958;BME280;15295;42.658;23.374;2023-04-15T11:48:32;93980.03;;;25.97;19.59
27958;BME280;15295;42.658;23.374;2023-04-15T11:51:06;93967.56;;;25.92;19.54
27958;BME280;15295;42.658;23.374;2023-04-15T11:53:51;93961.50;;;25.77;19.97
27958;BME280;15295;42.658;23.374;2023-04-15T11:56:18;93972.94;;;25.85;19.56
27958;BME280;15295;42.658;23.374;2023-04-15T11:58:56;93962.28;;;25.72;19.75
27958;BME280;15295;42.658;23.374;2023-04-15T12:01:36;93972.69;;;25.77;19.59
27958;BME280;15295;42.658;23.374;2023-04-15T12:04:11;93964.31;;;25.72;19.57
27958;BME280;15295;42.658;23.374;2023-04-15T12:06:37;93963.03;;;25.62;19.52
27958;BME280;15295;42.658;23.374;2023-04-15T12:11:47;93966.59;;;25.51;19.64
27958;BME280;15295;42.658;23.374;2023-04-15T12:14:19;93972.94;;;25.63;19.76
27958;BME280;15295;42.658;23.374;2023-04-15T12:16:48;93954.13;;;25.69;19.32
27958;BME280;15295;42.658;23.374;2023-04-15T12:19:47;93967.59;;;25.76;19.10
27958;BME280;15295;42.658;23.374;2023-04-15T12:22:15;93974.22;;;25.45;19.58
27958;BME280;15295;42.658;23.374;2023-04-15T12:24:42;93967.84;;;25.34;18.45
27958;BME280;15295;42.658;23.374;2023-04-15T12:27:15;93976.72;;;25.26;17.79
27958;BME280;15295;42.658;23.374;2023-04-15T12:29:42;93971.13;;;25.21;18.03
27958;BME280;15295;42.658;23.374;2023-04-15T12:32:09;93967.81;;;25.17;18.06
27958;BME280;15295;42.658;23.374;2023-04-15T12:34:37;93962.19;;;25.11;18.04
27958;BME280;15295;42.658;23.374;2023-04-15T12:37:05;93966.03;;;25.14;18.77
27958;BME280;15295;42.658;23.374;2023-04-15T12:39:37;93964.69;;;24.82;18.43
27958;BME280;15295;42.658;23.374;2023-04-15T12:42:04;93972.72;;;24.69;18.50
27958;BME280;15295;42.658;23.374;2023-04-15T12:44:29;93957.16;;;24.40;18.35
27958;BME280;15295;42.658;23.374;2023-04-15T12:46:55;93970.06;;;24.37;18.74
27958;BME280;15295;42.658;23.374;2023-04-15T12:49:22;93968.53;;;24.31;18.23
27958;BME280;15295;42.658;23.374;2023-04-15T12:51:49;93961.97;;;24.39;18.32
27958;BME280;15295;42.658;23.374;2023-04-15T12:54:18;93982.69;;;24.27;19.00
27958;BME280;15295;42.658;23.374;2023-04-15T12:56:47;93987.38;;;24.47;19.01
27958;BME280;15295;42.658;23.374;2023-04-15T12:59:26;93969.50;;;24.28;18.97
27958;BME280;15295;42.658;23.374;2023-04-15T13:01:52;93972.88;;;24.43;19.19
27958;BME280;15295;42.658;23.374;2023-04-15T13:04:19;93984.31;;;24.39;19.34
27958;BME280;15295;42.658;23.374;2023-04-15T13:06:44;93978.66;;;24.28;18.98